Time;durP1;ratioP1;P1;durP2;ratioP2;P2;SDS_P1;SDS_P2;PMS_P1;PMS_P2;Temp;Humidity;BMP_temperature;BMP_pressure;BME280_temperature;BME280_humidity;BME280_pressure;Samples;Min_cycle;Max_cycle;Signal;HPM_P1;HPM_P2
2022/07/20 00:01:53;;;;;;;6.17;5.03;;;30.20;30.70;;;;;;4997851;28;20452;-69
2022/07/20 00:04:19;;;;;;;9.10;4.20;;;30.20;30.90;;;;;;4997859;28;20551;-69
2022/07/20 00:06:46;;;;;;;4.33;3.93;;;30.20;30.90;;;;;;4997291;28;20463;-69
2022/07/20 00:11:57;;;;;;;5.10;4.50;;;29.90;31.80;;;;;;4997288;28;20822;-69
2022/07/20 00:14:25;;;;;;;6.73;4.73;;;29.80;32.40;;;;;;4997388;28;20460;-68
2022/07/20 00:16:52;;;;;;;6.77;5.07;;;29.60;32.70;;;;;;4997025;28;20436;-67
2022/07/20 00:19:19;;;;;;;5.17;4.67;;;29.30;33.20;;;;;;4996916;28;20460;-68
2022/07/20 00:21:46;;;;;;;6.40;4.87;;;29.10;33.80;;;;;;4997053;28;20507;-68
2022/07/20 00:24:13;;;;;;;6.37;5.20;;;28.90;34.30;;;;;;4996736;28;20624;-68
2022/07/20 00:26:40;;;;;;;6.67;4.73;;;28.70;34.50;;;;;;4996890;28;20460;-71
2022/07/20 00:29:07;;;;;;;9.47;5.37;;;28.60;34.90;;;;;;4996661;28;20503;-71
2022/07/20 00:31:36;;;;;;;7.07;5.37;;;28.60;35.00;;;;;;4996845;28;20452;-71
2022/07/20 00:34:03;;;;;;;7.60;4.63;;;28.50;35.20;;;;;;4996696;28;20515;-71
2022/07/20 00:36:29;;;;;;;5.33;4.50;;;28.50;35.50;;;;;;4996661;28;20448;-71
2022/07/20 00:38:56;;;;;;;7.43;4.67;;;28.40;35.70;;;;;;4996466;28;21004;-71
2022/07/20 00:41:23;;;;;;;7.43;4.13;;;28.40;35.80;;;;;;4996688;28;20463;-71
2022/07/20 00:43:54;;;;;;;7.07;5.50;;;28.40;35.90;;;;;;4996830;28;20452;-72
2022/07/20 00:46:20;;;;;;;5.30;4.23;;;28.40;35.80;;;;;;4996592;28;20460;-71
2022/07/20 00:48:49;;;;;;;4.83;4.40;;;28.40;35.90;;;;;;4996476;28;20484;-71
2022/07/20 00:51:16;;;;;;;5.80;5.20;;;28.40;35.90;;;;;;4996663;28;20455;-71
2022/07/20 00:53:43;;;;;;;6.00;4.77;;;28.40;35.80;;;;;;4996354;28;20961;-71
2022/07/20 00:56:11;;;;;;;4.50;4.10;;;28.40;35.70;;;;;;4996349;28;20453;-71
2022/07/20 00:58:38;;;;;;;4.70;4.30;;;28.50;35.50;;;;;;4996199;28;20468;-71
2022/07/20 01:01:05;;;;;;;6.60;4.17;;;28.50;35.00;;;;;;4996240;28;20459;-71
2022/07/20 01:03:32;;;;;;;11.30;4.10;;;28.50;35.20;;;;;;4996224;28;20471;-71
2022/07/20 01:06:01;;;;;;;5.03;4.53;;;28.50;34.90;;;;;;4996228;28;20503;-72
2022/07/20 01:08:29;;;;;;;7.00;4.50;;;28.50;34.00;;;;;;4996087;28;20488;-71
2022/07/20 01:10:57;;;;;;;3.97;3.67;;;28.60;33.50;;;;;;4996001;28;20832;-71
2022/07/20 01:13:24;;;;;;;10.40;5.17;;;28.60;33.60;;;;;;4996121;28;20437;-71
2022/07/20 01:15:51;;;;;;;5.13;4.63;;;28.60;33.70;;;;;;4996154;28;20451;-68
2022/07/20 01:18:17;;;;;;;5.37;3.93;;;28.60;34.50;;;;;;4995854;28;20571;-69
2022/07/20 01:20:46;;;;;;;5.10;4.60;;;28.60;34.30;;;;;;4995905;28;20452;-69
2022/07/20 01:23:14;;;;;;;4.60;4.20;;;28.70;34.30;;;;;;4995787;28;20498;-69
2022/07/20 01:25:42;;;;;;;4.73;3.80;;;28.70;34.30;;;;;;4996145;28;20459;-69
2022/07/20 01:28:09;;;;;;;8.00;4.90;;;28.70;34.60;;;;;;4995077;28;20870;-69
2022/07/20 01:30:37;;;;;;;5.23;4.70;;;28.70;34.70;;;;;;4995731;28;20448;-69
2022/07/20 01:33:03;;;;;;;5.73;3.70;;;28.60;34.70;;;;;;4995873;28;20455;-69
2022/07/20 01:35:30;;;;;;;4.63;4.13;;;28.60;34.50;;;;;;4995634;28;20452;-69
2022/07/20 01:37:57;;;;;;;6.90;3.90;;;28.60;34.40;;;;;;4995485;28;20850;-69
2022/07/20 01:40:25;;;;;;;5.60;3.70;;;28.60;34.80;;;;;;4995193;28;20859;-69
2022/07/20 01:42:52;;;;;;;6.57;4.57;;;28.60;35.10;;;;;;4995279;28;20950;-69
2022/07/20 01:45:19;;;;;;;6.50;3.90;;;28.60;34.90;;;;;;4995521;28;20452;-69
2022/07/20 01:47:46;;;;;;;8.67;4.13;;;28.60;34.40;;;;;;4995306;28;20515;-69
2022/07/20 01:50:13;;;;;;;6.30;4.00;;;28.60;33.50;;;;;;4995121;28;20490;-69
2022/07/20 01:52:40;;;;;;;4.87;4.33;;;28.60;33.70;;;;;;4995059;28;20433;-71
2022/07/20 01:55:07;;;;;;;3.60;3.30;;;28.60;34.00;;;;;;4995256;28;20829;-69
2022/07/20 01:57:35;;;;;;;6.93;4.30;;;28.60;34.30;;;;;;4995152;28;20476;-69
2022/07/20 02:00:02;;;;;;;7.23;4.53;;;28.60;34.40;;;;;;4994849;28;20942;-69
2022/07/20 02:02:29;;;;;;;4.30;3.90;;;28.60;35.10;;;;;;4994996;28;20502;-69
2022/07/20 02:04:56;;;;;;;4.10;3.80;;;28.60;34.70;;;;;;4994976;28;20823;-68
2022/07/20 02:07:23;;;;;;;5.03;4.00;;;28.50;34.70;;;;;;4994885;28;20472;-68
2022/07/20 02:09:50;;;;;;;5.83;3.93;;;28.50;34.80;;;;;;4994614;28;20468;-68
2022/07/20 02:12:16;;;;;;;8.33;4.83;;;28.40;34.80;;;;;;4994663;28;20958;-68
2022/07/20 02:14:45;;;;;;;6.33;3.93;;;28.40;34.80;;;;;;4994894;28;20459;-71
2022/07/20 02:17:11;;;;;;;5.13;3.67;;;28.40;35.00;;;;;;4995326;28;20448;-71
2022/07/20 02:19:38;;;;;;;5.20;3.50;;;28.30;35.10;;;;;;4995590;28;20459;-72
2022/07/20 02:22:05;;;;;;;5.23;4.27;;;28.30;35.30;;;;;;4995521;28;20972;-72
2022/07/20 02:24:32;;;;;;;5.70;4.30;;;28.30;35.50;;;;;;4995078;28;20455;-72
2022/07/20 02:26:58;;;;;;;5.23;4.73;;;28.20;35.50;;;;;;4995482;28;20460;-71
2022/07/20 02:29:25;;;;;;;4.47;4.00;;;28.20;35.50;;;;;;4994830;28;20487;-69
2022/07/20 02:31:53;;;;;;;4.70;3.87;;;28.10;35.40;;;;;;4994641;28;20448;-69
2022/07/20 02:34:20;;;;;;;4.50;3.70;;;28.10;35.40;;;;;;4994590;28;20454;-69
2022/07/20 02:36:47;;;;;;;6.20;4.10;;;28.00;35.50;;;;;;4994226;28;20828;-69
2022/07/20 02:39:13;;;;;;;7.37;4.50;;;28.00;36.10;;;;;;4994514;28;20468;-69
2022/07/20 02:41:40;;;;;;;7.00;4.53;;;28.00;36.40;;;;;;4994547;28;20452;-69
2022/07/20 02:44:07;;;;;;;5.20;4.73;;;27.90;36.90;;;;;;4994541;28;20448;-69
2022/07/20 02:46:34;;;;;;;10.13;5.00;;;27.90;35.80;;;;;;4994338;28;20514;-69
2022/07/20 02:49:02;;;;;;;4.47;4.17;;;27.60;35.60;;;;;;4993859;28;21029;-69
2022/07/20 02:51:29;;;;;;;9.10;4.57;;;27.40;36.30;;;;;;4994455;28;20459;-69
2022/07/20 02:53:55;;;;;;;5.90;5.00;;;27.30;36.80;;;;;;4994253;28;20463;-69
2022/07/20 02:56:22;;;;;;;5.80;5.20;;;27.00;37.90;;;;;;4994035;28;20818;-69
2022/07/20 02:58:49;;;;;;;5.07;4.67;;;26.50;38.80;;;;;;4994289;28;20472;-69
2022/07/20 03:01:16;;;;;;;7.13;6.27;;;26.30;39.50;;;;;;4993983;28;20452;-69
2022/07/20 03:03:43;;;;;;;9.70;5.77;;;26.20;40.00;;;;;;4994214;28;20451;-69
2022/07/20 03:06:11;;;;;;;9.23;5.37;;;26.00;40.60;;;;;;4994331;28;20448;-69
2022/07/20 03:08:38;;;;;;;8.33;5.30;;;25.90;40.80;;;;;;4993963;28;21009;-69
2022/07/20 03:11:05;;;;;;;5.83;4.67;;;25.80;40.90;;;;;;4993961;28;20452;-69
2022/07/20 03:13:31;;;;;;;8.67;5.57;;;25.80;41.50;;;;;;4993829;28;20429;-69
2022/07/20 03:15:58;;;;;;;5.93;4.50;;;25.90;41.20;;;;;;4994052;28;20449;-69
2022/07/20 03:18:25;;;;;;;7.40;4.93;;;25.90;41.10;;;;;;4993964;28;20476;-69
2022/07/20 03:20:52;;;;;;;12.70;6.10;;;26.00;41.30;;;;;;4993619;28;20480;-69
2022/07/20 03:23:20;;;;;;;9.00;5.90;;;26.10;41.30;;;;;;4997995;28;20447;-69
2022/07/20 03:25:46;;;;;;;6.10;4.40;;;26.10;41.30;;;;;;4997935;28;20486;-69
2022/07/20 03:28:13;;;;;;;13.97;5.40;;;26.10;41.40;;;;;;4997772;28;20474;-69
2022/07/20 03:30:40;;;;;;;10.70;4.50;;;26.10;41.30;;;;;;4997520;28;20495;-69
2022/07/20 03:33:07;;;;;;;13.90;5.50;;;26.20;41.40;;;;;;4997865;28;20456;-69
2022/07/20 03:35:33;;;;;;;7.63;5.47;;;26.20;41.50;;;;;;4997791;28;20521;-69
2022/07/20 03:38:00;;;;;;;6.47;5.17;;;26.20;41.30;;;;;;4997959;28;20464;-69
2022/07/20 03:40:28;;;;;;;8.00;5.37;;;26.20;41.30;;;;;;4997353;28;20812;-69
2022/07/20 03:42:55;;;;;;;9.50;5.47;;;26.20;41.30;;;;;;4997603;28;20448;-69
2022/07/20 03:45:22;;;;;;;8.30;4.30;;;26.20;41.40;;;;;;4997519;28;20444;-69
2022/07/20 03:47:49;;;;;;;13.80;5.83;;;26.20;41.60;;;;;;4997297;28;20522;-69
2022/07/20 03:50:16;;;;;;;10.50;5.30;;;26.10;41.60;;;;;;4997397;28;20484;-69
2022/07/20 03:52:42;;;;;;;8.63;4.93;;;26.10;41.70;;;;;;4997052;28;20945;-69
2022/07/20 03:55:09;;;;;;;16.00;5.50;;;26.00;42.10;;;;;;4997360;28;20448;-69
2022/07/20 03:57:37;;;;;;;15.77;5.10;;;25.90;42.30;;;;;;4997204;28;20478;-69
2022/07/20 04:00:06;;;;;;;8.23;5.73;;;25.90;42.70;;;;;;4997303;28;20454;-69
2022/07/20 04:02:32;;;;;;;7.67;5.27;;;25.80;42.90;;;;;;4997164;28;20810;-69
2022/07/20 04:04:59;;;;;;;7.67;5.57;;;25.80;43.10;;;;;;4996822;28;20952;-69
2022/07/20 04:07:26;;;;;;;12.00;5.53;;;25.80;43.30;;;;;;4996999;28;20483;-69
2022/07/20 04:09:53;;;;;;;15.97;5.37;;;25.80;43.00;;;;;;4996588;28;20483;-69
2022/07/20 04:12:21;;;;;;;9.00;4.63;;;25.90;40.90;;;;;;4996652;28;20460;-69
2022/07/20 04:14:51;;;;;;;15.33;4.83;;;25.90;39.70;;;;;;4997001;28;20451;-69
2022/07/20 04:17:19;;;;;;;15.40;5.67;;;25.90;39.10;;;;;;4996769;28;20845;-69
2022/07/20 04:19:46;;;;;;;13.07;4.80;;;25.90;39.50;;;;;;4996848;28;20467;-69
2022/07/20 04:22:13;;;;;;;16.00;5.80;;;26.00;39.30;;;;;;4996813;28;20447;-69
2022/07/20 04:24:40;;;;;;;18.83;5.77;;;26.00;38.70;;;;;;4996499;28;20467;-69
2022/07/20 04:27:07;;;;;;;22.97;7.37;;;26.10;38.80;;;;;;4996318;28;20821;-70
2022/07/20 04:29:34;;;;;;;11.70;6.53;;;26.00;38.60;;;;;;4996741;28;20484;-69
2022/07/20 04:32:02;;;;;;;15.77;8.10;;;26.00;39.30;;;;;;4996497;28;20454;-69
2022/07/20 04:34:29;;;;;;;14.40;7.63;;;25.90;39.20;;;;;;4996239;28;20954;-69
2022/07/20 04:36:56;;;;;;;14.37;7.67;;;25.90;39.40;;;;;;4996585;28;20444;-69
2022/07/20 04:39:23;;;;;;;14.67;8.10;;;25.70;40.00;;;;;;4996158;28;21023;-69
2022/07/20 04:41:50;;;;;;;12.93;8.00;;;25.60;41.20;;;;;;4996452;28;20788;-69
2022/07/20 04:44:17;;;;;;;10.13;8.20;;;25.30;41.40;;;;;;4996067;28;20452;-69
2022/07/20 04:46:43;;;;;;;13.97;8.40;;;25.10;42.40;;;;;;4996330;28;20814;-69
2022/07/20 04:49:11;;;;;;;12.80;10.20;;;25.00;42.90;;;;;;4996456;28;20488;-69
2022/07/20 04:51:38;;;;;;;18.50;10.37;;;24.90;43.90;;;;;;4996472;28;20451;-69
2022/07/20 04:54:05;;;;;;;12.03;10.10;;;24.80;44.30;;;;;;4996170;28;20448;-69
2022/07/20 04:56:32;;;;;;;21.40;11.60;;;24.80;44.80;;;;;;4996221;28;20452;-69
2022/07/20 04:58:59;;;;;;;18.50;12.60;;;24.80;45.40;;;;;;4996086;28;20475;-69
2022/07/20 05:01:26;;;;;;;23.00;13.90;;;24.90;45.80;;;;;;4996110;28;20440;-69
2022/07/20 05:03:54;;;;;;;14.63;12.30;;;24.90;46.30;;;;;;4996005;28;20452;-69
2022/07/20 05:06:22;;;;;;;22.67;14.90;;;25.00;46.40;;;;;;4996013;28;20444;-69
2022/07/20 05:08:49;;;;;;;15.00;13.33;;;25.00;46.70;;;;;;4995773;28;20472;-69
2022/07/20 05:11:16;;;;;;;22.27;14.80;;;25.10;46.90;;;;;;4995595;28;20472;-69
2022/07/20 05:13:43;;;;;;;18.57;14.50;;;25.10;46.80;;;;;;4995810;28;20451;-69
2022/07/20 05:16:10;;;;;;;22.53;15.80;;;25.20;47.00;;;;;;4995827;28;20451;-69
2022/07/20 05:18:37;;;;;;;26.10;15.23;;;25.20;47.20;;;;;;4995638;28;20476;-69
2022/07/20 05:21:04;;;;;;;15.50;13.87;;;25.30;47.30;;;;;;4995800;28;20429;-69
2022/07/20 05:23:32;;;;;;;23.13;14.90;;;25.30;47.50;;;;;;4995679;28;20451;-69
2022/07/20 05:25:59;;;;;;;16.80;14.93;;;25.40;47.50;;;;;;4995299;28;20452;-69
2022/07/20 05:28:26;;;;;;;22.63;15.30;;;25.40;47.60;;;;;;4995444;28;20464;-69
2022/07/20 05:30:53;;;;;;;20.07;15.57;;;25.40;47.60;;;;;;4995386;28;20579;-69
2022/07/20 05:33:20;;;;;;;25.80;16.70;;;25.50;47.70;;;;;;4995183;28;20820;-69
2022/07/20 05:35:49;;;;;;;20.23;15.60;;;25.60;47.80;;;;;;4995161;28;20437;-69
2022/07/20 05:38:16;;;;;;;17.37;15.33;;;25.70;47.70;;;;;;4995322;28;20468;-69
2022/07/20 05:40:44;;;;;;;20.10;17.07;;;25.80;48.20;;;;;;4995314;28;20451;-69
2022/07/20 05:43:11;;;;;;;26.53;17.53;;;25.90;47.80;;;;;;4995433;28;20444;-69
2022/07/20 05:45:37;;;;;;;19.30;17.30;;;26.00;47.80;;;;;;4994709;28;20444;-68
2022/07/20 05:48:05;;;;;;;22.70;15.97;;;26.10;47.90;;;;;;4995152;28;20472;-69
2022/07/20 05:50:32;;;;;;;21.73;17.40;;;26.10;47.50;;;;;;4994999;28;20468;-70
2022/07/20 05:52:59;;;;;;;24.60;17.57;;;26.20;47.60;;;;;;4995234;28;20454;-69
2022/07/20 05:55:26;;;;;;;22.80;16.00;;;26.20;48.50;;;;;;4995028;28;20452;-69
2022/07/20 05:57:54;;;;;;;24.00;18.53;;;26.20;48.20;;;;;;4994726;28;20483;-69
2022/07/20 06:00:21;;;;;;;18.37;16.50;;;26.10;48.50;;;;;;4994706;28;20901;-69
2022/07/20 06:02:47;;;;;;;25.30;18.73;;;26.20;48.60;;;;;;4994594;28;20456;-69
2022/07/20 06:05:14;;;;;;;24.20;18.40;;;26.20;49.10;;;;;;4994597;28;20436;-69
2022/07/20 06:07:41;;;;;;;21.07;18.10;;;26.20;49.10;;;;;;4994729;28;20579;-69
2022/07/20 06:10:08;;;;;;;24.87;19.03;;;26.20;49.00;;;;;;4994750;28;20491;-69
2022/07/20 06:12:36;;;;;;;21.37;19.20;;;26.30;49.30;;;;;;4994437;28;20464;-69
2022/07/20 06:15:06;;;;;;;28.30;19.37;;;26.30;49.20;;;;;;4994748;28;20448;-69
2022/07/20 06:17:37;;;;;;;21.37;19.20;;;26.40;49.50;;;;;;4994607;28;20476;-69
2022/07/20 06:20:07;;;;;;;24.70;20.23;;;26.50;49.00;;;;;;4995063;28;20495;-69
2022/07/20 06:22:35;;;;;;;25.23;19.03;;;26.60;49.90;;;;;;4994717;28;20443;-69
2022/07/20 06:25:02;;;;;;;24.23;20.63;;;26.70;49.50;;;;;;4994504;28;20444;-69
2022/07/20 06:27:28;;;;;;;21.20;19.00;;;26.70;49.30;;;;;;4994176;28;20974;-69
2022/07/20 06:29:55;;;;;;;22.20;19.80;;;26.70;49.20;;;;;;4994211;28;20835;-69
2022/07/20 06:32:23;;;;;;;30.67;20.50;;;26.70;49.10;;;;;;4994473;28;20448;-69
2022/07/20 06:34:50;;;;;;;22.90;20.50;;;26.70;49.10;;;;;;4994248;28;20433;-69
2022/07/20 06:37:17;;;;;;;24.57;20.47;;;26.60;49.80;;;;;;4994383;28;20452;-69
2022/07/20 06:39:43;;;;;;;23.73;18.90;;;26.50;50.00;;;;;;4994319;28;20440;-69
2022/07/20 06:42:10;;;;;;;24.67;20.70;;;26.50;50.70;;;;;;4994376;28;20474;-69
2022/07/20 06:44:37;;;;;;;29.27;19.77;;;26.50;51.00;;;;;;4994381;28;20459;-69
2022/07/20 06:47:05;;;;;;;26.50;20.50;;;26.50;50.50;;;;;;4994259;28;20452;-69
2022/07/20 06:49:33;;;;;;;21.97;19.67;;;26.60;50.90;;;;;;4993941;28;20452;-69
2022/07/20 06:52:00;;;;;;;22.63;20.00;;;26.70;50.30;;;;;;4994381;28;20973;-69
2022/07/20 06:54:27;;;;;;;23.03;20.70;;;26.80;50.90;;;;;;4995099;28;20451;-69
2022/07/20 06:56:54;;;;;;;23.83;20.40;;;26.90;49.70;;;;;;4993804;28;20960;-69
2022/07/20 06:59:21;;;;;;;22.90;20.77;;;27.00;49.00;;;;;;4994116;28;21019;-69
2022/07/20 07:01:48;;;;;;;25.00;20.50;;;27.10;49.40;;;;;;4994301;28;20444;-69
2022/07/20 07:04:14;;;;;;;22.53;19.73;;;27.30;49.30;;;;;;4994241;28;20459;-69
2022/07/20 07:06:43;;;;;;;22.37;20.00;;;27.40;48.70;;;;;;4993796;28;20452;-69
2022/07/20 07:09:10;;;;;;;22.63;19.97;;;27.50;48.00;;;;;;4994180;28;20468;-69
2022/07/20 07:11:37;;;;;;;25.40;20.20;;;27.60;48.20;;;;;;4993952;28;20581;-69
2022/07/20 07:14:05;;;;;;;23.17;20.00;;;27.60;48.30;;;;;;4993888;28;20536;-69
2022/07/20 07:16:31;;;;;;;21.00;18.97;;;27.60;48.30;;;;;;4993810;28;20542;-69
2022/07/20 07:18:59;;;;;;;22.00;18.23;;;27.50;48.40;;;;;;4993632;28;20829;-69
2022/07/20 07:21:26;;;;;;;20.57;18.57;;;27.40;48.00;;;;;;4994004;28;20444;-69
2022/07/20 07:23:54;;;;;;;24.97;20.03;;;27.40;48.30;;;;;;4994094;28;20893;-69
2022/07/20 07:26:21;;;;;;;21.20;18.90;;;27.30;47.60;;;;;;4994123;28;20441;-69
2022/07/20 07:28:48;;;;;;;20.63;17.83;;;27.10;48.10;;;;;;4993912;28;20522;-69
2022/07/20 07:31:17;;;;;;;22.07;19.87;;;27.20;48.50;;;;;;4993922;28;20900;-69
2022/07/20 07:33:44;;;;;;;22.47;19.77;;;27.20;48.60;;;;;;4994166;28;20455;-69
2022/07/20 07:36:11;;;;;;;21.27;18.53;;;27.20;48.80;;;;;;4994041;28;20428;-69
2022/07/20 07:38:38;;;;;;;21.27;19.03;;;27.30;49.20;;;;;;4994054;28;20476;-69
2022/07/20 07:41:07;;;;;;;22.83;18.70;;;27.40;49.20;;;;;;4993961;28;20998;-69
2022/07/20 07:43:33;;;;;;;21.20;18.50;;;27.40;49.60;;;;;;4994302;28;20457;-69
2022/07/20 07:46:00;;;;;;;22.93;18.90;;;27.40;49.40;;;;;;4994020;28;20443;-69
2022/07/20 07:48:27;;;;;;;20.13;18.03;;;27.30;50.00;;;;;;4993894;28;20464;-69
2022/07/20 07:50:54;;;;;;;20.43;18.63;;;27.30;49.10;;;;;;4993874;28;20495;-69
2022/07/20 07:53:21;;;;;;;27.63;19.03;;;27.30;49.30;;;;;;4993864;28;20436;-69
2022/07/20 07:55:48;;;;;;;23.13;18.77;;;27.30;49.30;;;;;;4993743;28;20443;-69
2022/07/20 07:58:16;;;;;;;23.37;20.00;;;27.40;49.90;;;;;;4993804;28;20475;-69
2022/07/20 08:00:43;;;;;;;22.83;20.47;;;27.30;49.60;;;;;;4993662;28;20436;-69
2022/07/20 08:03:10;;;;;;;22.50;20.20;;;27.20;49.70;;;;;;4993953;28;20799;-69
2022/07/20 08:05:37;;;;;;;23.90;20.53;;;27.20;49.90;;;;;;4993722;28;20447;-69
2022/07/20 08:08:08;;;;;;;23.10;20.63;;;27.30;50.60;;;;;;4995506;28;20476;-68
2022/07/20 08:10:35;;;;;;;25.67;19.00;;;27.50;50.00;;;;;;4997007;28;20995;-68
2022/07/20 08:13:03;;;;;;;22.40;19.33;;;27.80;50.20;;;;;;4996777;28;20466;-68
2022/07/20 08:15:31;;;;;;;25.70;19.87;;;27.90;48.90;;;;;;4996877;28;20950;-68
2022/07/20 08:17:58;;;;;;;21.57;19.40;;;28.00;48.20;;;;;;4997056;28;20468;-68
2022/07/20 08:20:25;;;;;;;20.97;18.77;;;28.00;48.10;;;;;;4997020;28;20448;-69
2022/07/20 08:22:53;;;;;;;20.30;18.10;;;28.00;47.70;;;;;;4997266;28;20444;-69
2022/07/20 08:25:20;;;;;;;20.70;17.90;;;27.90;47.70;;;;;;4997115;28;20437;-69
2022/07/20 08:27:47;;;;;;;20.73;18.73;;;27.80;47.80;;;;;;4996757;28;20559;-69
2022/07/20 08:30:15;;;;;;;24.00;18.90;;;27.70;48.10;;;;;;4996536;28;20571;-69
2022/07/20 08:32:43;;;;;;;20.13;18.07;;;27.70;48.80;;;;;;4996617;28;20456;-70
2022/07/20 08:35:10;;;;;;;20.90;18.73;;;27.70;48.20;;;;;;4996826;28;20433;-69
2022/07/20 08:37:37;;;;;;;22.63;19.87;;;27.90;49.00;;;;;;4996633;28;20519;-69
2022/07/20 08:40:05;;;;;;;21.43;19.30;;;28.10;48.70;;;;;;4996350;28;20938;-69
2022/07/20 08:42:32;;;;;;;20.93;18.97;;;28.30;48.50;;;;;;4996606;28;20499;-69
2022/07/20 08:44:59;;;;;;;21.37;19.27;;;28.60;48.00;;;;;;4996509;28;20443;-68
2022/07/20 08:47:30;;;;;;;22.87;19.53;;;28.80;46.50;;;;;;4996231;28;20985;-68
2022/07/20 08:49:59;;;;;;;22.67;20.17;;;28.90;46.80;;;;;;4996082;28;20907;-68
2022/07/20 08:52:25;;;;;;;21.37;19.27;;;28.90;46.50;;;;;;4996668;28;20437;-68
2022/07/20 08:54:52;;;;;;;23.33;19.27;;;29.00;46.90;;;;;;4996280;28;20448;-68
2022/07/20 08:57:19;;;;;;;24.27;18.27;;;29.00;47.20;;;;;;4996087;28;20452;-68
2022/07/20 08:59:47;;;;;;;21.50;19.27;;;29.10;47.10;;;;;;4996197;28;20448;-68
2022/07/20 09:02:14;;;;;;;22.23;19.90;;;29.10;47.30;;;;;;4996202;28;20452;-68
2022/07/20 09:04:50;;;;;;;20.43;18.07;;;29.00;46.90;;;;;;4996060;28;20452;-68
2022/07/20 09:07:19;;;;;;;18.97;17.20;;;28.90;46.50;;;;;;4996093;28;20432;-68
2022/07/20 09:09:45;;;;;;;20.10;18.03;;;28.80;47.20;;;;;;4995950;28;20538;-68
2022/07/20 09:12:12;;;;;;;21.13;18.00;;;28.80;47.10;;;;;;4995893;28;20520;-70
2022/07/20 09:14:43;;;;;;;19.57;17.80;;;29.00;47.40;;;;;;4996323;28;20448;-72
2022/07/20 09:17:16;;;;;;;20.43;18.33;;;29.20;46.80;;;;;;4996021;28;20444;-71
2022/07/20 09:19:57;;;;;;;19.20;17.30;;;29.40;46.40;;;;;;4994684;28;20443;-71
2022/07/20 09:22:34;;;;;;;19.40;17.30;;;29.60;46.00;;;;;;4995889;28;20456;-72
2022/07/20 09:25:18;;;;;;;20.80;18.50;;;29.80;45.30;;;;;;4996093;28;20452;-72
2022/07/20 09:27:45;;;;;;;19.87;17.93;;;30.00;45.30;;;;;;4995752;28;20475;-71
2022/07/20 09:30:14;;;;;;;18.77;16.90;;;30.20;45.40;;;;;;4995704;28;20535;-71
2022/07/20 09:32:57;;;;;;;19.33;17.40;;;30.60;44.80;;;;;;4995608;28;20461;-71
2022/07/20 09:35:26;;;;;;;18.73;16.90;;;30.70;44.10;;;;;;4995720;28;20436;-70
2022/07/20 09:37:56;;;;;;;20.57;18.47;;;31.00;43.40;;;;;;4995126;28;20843;-69
2022/07/20 09:40:23;;;;;;;20.00;18.20;;;31.30;42.50;;;;;;4995501;28;20437;-71
2022/07/20 09:42:50;;;;;;;20.80;17.57;;;31.50;42.40;;;;;;4995425;28;20551;-71
2022/07/20 09:45:27;;;;;;;19.40;17.47;;;31.80;42.50;;;;;;4995409;28;20452;-71
2022/07/20 09:48:09;;;;;;;21.40;19.17;;;32.30;42.00;;;;;;4995297;28;20467;-70
2022/07/20 09:50:39;;;;;;;21.80;19.87;;;32.60;40.30;;;;;;4994994;28;20470;-71
2022/07/20 09:53:07;;;;;;;21.17;19.10;;;32.80;40.10;;;;;;4995100;28;20820;-71
2022/07/20 09:55:35;;;;;;;20.70;18.90;;;33.00;40.40;;;;;;4995259;28;20868;-73
2022/07/20 09:58:02;;;;;;;21.03;18.80;;;33.20;39.80;;;;;;4995166;28;20479;-72
2022/07/20 10:00:30;;;;;;;21.37;19.50;;;33.40;39.30;;;;;;4995395;28;20428;-71
2022/07/20 10:02:58;;;;;;;17.87;16.07;;;33.60;37.50;;;;;;4994879;28;20813;-72
2022/07/20 10:05:28;;;;;;;16.73;14.97;;;33.50;37.70;;;;;;4995175;28;20451;-72
2022/07/20 10:07:55;;;;;;;17.60;15.80;;;33.50;37.30;;;;;;4994701;28;21007;-71
2022/07/20 10:10:23;;;;;;;17.70;16.00;;;33.40;37.10;;;;;;4995092;28;20447;-71
2022/07/20 10:12:50;;;;;;;17.10;15.10;;;33.30;37.20;;;;;;4994653;28;20462;-72
2022/07/20 10:15:24;;;;;;;15.90;14.20;;;33.30;37.10;;;;;;4994897;28;20451;-72
2022/07/20 10:17:51;;;;;;;16.70;14.90;;;33.20;36.80;;;;;;4994887;28;20482;-71
2022/07/20 10:20:33;;;;;;;13.57;12.40;;;33.00;37.00;;;;;;4994977;28;20439;-71
2022/07/20 10:23:32;;;;;;;15.63;13.60;;;32.70;37.00;;;;;;4994752;28;20487;-71
2022/07/20 10:26:00;;;;;;;13.13;11.80;;;32.70;37.60;;;;;;4994364;28;20897;-71
2022/07/20 10:28:38;;;;;;;11.63;10.40;;;32.60;36.80;;;;;;4994593;28;20476;-71
2022/07/20 10:31:16;;;;;;;10.80;9.70;;;32.60;36.40;;;;;;4994300;28;20473;-71
2022/07/20 10:33:43;;;;;;;12.77;11.57;;;32.60;36.80;;;;;;4994717;28;20447;-71
2022/07/20 10:38:57;;;;;;;12.87;11.77;;;33.10;37.00;;;;;;4994452;28;20446;-71
2022/07/20 10:41:36;;;;;;;12.97;11.67;;;33.50;36.30;;;;;;4994939;28;20448;-71
2022/07/20 10:44:28;;;;;;;13.43;11.90;;;34.00;35.40;;;;;;4994554;28;20443;-71
2022/07/20 10:46:55;;;;;;;13.70;12.30;;;34.40;33.70;;;;;;4994326;28;20513;-71
2022/07/20 10:50:07;;;;;;;14.20;12.90;;;34.90;32.90;;;;;;4994564;28;20930;-71
2022/07/20 10:52:35;;;;;;;13.03;11.93;;;35.10;33.20;;;;;;4994143;28;20973;-72
2022/07/20 10:55:04;;;;;;;13.27;12.03;;;35.60;31.90;;;;;;4994153;28;20454;-72
2022/07/20 10:57:32;;;;;;;11.70;10.67;;;35.60;31.50;;;;;;4993990;28;21003;-71
2022/07/20 11:00:09;;;;;;;12.83;11.60;;;35.70;31.00;;;;;;4994130;28;20460;-71
2022/07/20 11:02:36;;;;;;;12.00;10.90;;;35.90;31.00;;;;;;4993953;28;20964;-71
2022/07/20 11:05:04;;;;;;;11.63;10.63;;;36.40;31.00;;;;;;4994362;28;20454;-71
2022/07/20 11:07:32;;;;;;;12.80;9.23;;;36.70;30.40;;;;;;4995290;28;20477;-73
2022/07/20 11:10:00;;;;;;;10.53;9.03;;;37.40;29.60;;;;;;4994412;28;20456;-71
2022/07/20 11:12:28;;;;;;;9.90;9.00;;;38.10;28.80;;;;;;4994142;28;20491;-72
2022/07/20 11:14:58;;;;;;;11.67;10.63;;;38.80;27.30;;;;;;4994370;28;20205;-72
2022/07/20 11:17:24;;;;;;;10.85;8.50;;;39.50;26.40;;;;;;4994255;28;20220;-70
2022/07/20 11:19:51;;;;;;;8.98;8.07;;;39.90;25.80;;;;;;4994510;28;20209;-72
2022/07/20 11:22:19;;;;;;;9.00;8.07;;;40.40;26.10;;;;;;4994234;28;20201;-72
2022/07/20 11:24:55;;;;;;;8.55;7.80;;;40.80;24.40;;;;;;4994147;28;20221;-72
2022/07/20 11:27:22;;;;;;;7.63;6.93;;;40.50;24.90;;;;;;4993886;28;20212;-71
2022/07/20 11:29:51;;;;;;;8.80;7.60;;;40.40;24.40;;;;;;4994253;28;20216;-71
2022/07/20 11:32:20;;;;;;;8.50;6.78;;;40.30;24.30;;;;;;4994137;28;20299;-71
2022/07/20 11:34:52;;;;;;;9.85;7.50;;;39.90;25.00;;;;;;4994268;28;20204;-71
2022/07/20 11:37:20;;;;;;;7.57;6.78;;;40.10;24.90;;;;;;4994081;28;20195;-71
2022/07/20 11:39:47;;;;;;;11.10;7.63;;;40.00;24.60;;;;;;4994083;28;20193;-71
2022/07/20 11:42:16;;;;;;;7.40;6.70;;;39.90;24.70;;;;;;4994514;28;20296;-70
2022/07/20 11:44:59;;;;;;;7.78;7.05;;;39.60;24.80;;;;;;4997807;28;20212;-71
2022/07/20 11:47:27;;;;;;;8.63;6.25;;;39.50;25.20;;;;;;4997637;28;20224;-70
2022/07/20 11:50:09;;;;;;;11.40;7.82;;;39.30;25.40;;;;;;4997402;28;20571;-71
2022/07/20 11:52:40;;;;;;;9.93;7.53;;;38.90;25.80;;;;;;4997402;28;20216;-71
2022/07/20 11:55:08;;;;;;;8.90;8.00;;;38.60;26.60;;;;;;4997610;28;20201;-71
2022/07/20 11:57:35;;;;;;;8.05;7.45;;;38.60;27.70;;;;;;4997234;28;20709;-70
2022/07/20 12:00:02;;;;;;;8.50;6.78;;;39.00;27.50;;;;;;4997328;28;20212;-71
2022/07/20 12:02:31;;;;;;;8.48;7.60;;;39.50;24.80;;;;;;4997400;28;20291;-71
2022/07/20 12:04:59;;;;;;;7.55;6.93;;;39.10;24.70;;;;;;4997442;28;20211;-71
2022/07/20 12:10:20;;;;;;;7.10;6.40;;;38.50;26.00;;;;;;4997407;28;20246;-70
2022/07/20 12:13:01;;;;;;;8.17;7.33;;;37.90;26.10;;;;;;4996960;28;20228;-71
2022/07/20 12:15:28;;;;;;;8.00;7.30;;;37.40;27.70;;;;;;4997467;28;20189;-71
2022/07/20 12:17:56;;;;;;;8.23;7.53;;;37.50;26.90;;;;;;4997407;28;20235;-71
2022/07/20 12:20:24;;;;;;;7.77;6.90;;;37.90;27.00;;;;;;4997138;28;20840;-70
2022/07/20 12:22:52;;;;;;;8.60;7.80;;;38.50;27.20;;;;;;4997100;28;20209;-71
2022/07/20 12:25:20;;;;;;;9.43;8.20;;;39.00;26.10;;;;;;4997175;28;20205;-71
2022/07/20 12:27:47;;;;;;;11.18;7.15;;;39.60;26.00;;;;;;4997298;28;20229;-71
2022/07/20 12:30:26;;;;;;;10.27;7.47;;;40.40;24.60;;;;;;4997136;28;20213;-71
2022/07/20 12:33:05;;;;;;;8.00;7.40;;;40.40;24.80;;;;;;4997027;28;20217;-71
2022/07/20 12:35:33;;;;;;;8.13;7.50;;;40.60;24.00;;;;;;4997249;28;20189;-71
2022/07/20 12:38:00;;;;;;;8.55;7.05;;;40.10;24.20;;;;;;4997061;28;20225;-70
2022/07/20 12:40:39;;;;;;;7.20;6.50;;;40.00;25.30;;;;;;5000331;28;20208;-71
2022/07/20 12:43:22;;;;;;;8.57;7.63;;;40.10;25.20;;;;;;4997906;28;20192;-71
2022/07/20 12:45:49;;;;;;;7.50;6.90;;;40.20;25.50;;;;;;4995869;28;20208;-71
2022/07/20 12:48:17;;;;;;;7.63;6.97;;;40.10;25.40;;;;;;4996499;28;20227;-70
2022/07/20 12:50:44;;;;;;;8.00;7.25;;;39.70;25.20;;;;;;4996529;28;20209;-70